sensor_id;sensor_type;location;lat;lon;timestamp;P1;durP1;ratioP1;P2;durP2;ratioP2
23280;SDS011;11809;56.390;-3.266;2023-07-31T00:00:52;2.15;;;0.80;;
23280;SDS011;11809;56.390;-3.266;2023-07-31T00:03:20;1.48;;;0.70;;
23280;SDS011;11809;56.390;-3.266;2023-07-31T00:05:47;1.63;;;0.70;;
23280;SDS011;11809;56.390;-3.266;2023-07-31T00:08:14;1.40;;;0.70;;
23280;SDS011;11809;56.390;-3.266;2023-07-31T00:10:41;1.65;;;0.80;;
23280;SDS011;11809;56.390;-3.266;2023-07-31T00:13:08;1.80;;;0.82;;
23280;SDS011;11809;56.390;-3.266;2023-07-31T00:15:36;1.80;;;0.85;;
23280;SDS011;11809;56.390;-3.266;2023-07-31T00:18:03;1.85;;;0.80;;
23280;SDS011;11809;56.390;-3.266;2023-07-31T00:20:30;0.77;;;0.77;;
23280;SDS011;11809;56.390;-3.266;2023-07-31T00:22:57;1.35;;;0.80;;
23280;SDS011;11809;56.390;-3.266;2023-07-31T00:25:24;1.35;;;0.80;;
23280;SDS011;11809;56.390;-3.266;2023-07-31T00:27:51;1.45;;;0.75;;
23280;SDS011;11809;56.390;-3.266;2023-07-31T00:30:18;2.78;;;0.80;;
23280;SDS011;11809;56.390;-3.266;2023-07-31T00:32:45;1.38;;;0.95;;
23280;SDS011;11809;56.390;-3.266;2023-07-31T00:35:12;3.08;;;0.90;;
23280;SDS011;11809;56.390;-3.266;2023-07-31T00:37:40;0.80;;;0.80;;
23280;SDS011;11809;56.390;-3.266;2023-07-31T00:40:07;2.47;;;0.65;;
23280;SDS011;11809;56.390;-3.266;2023-07-31T00:42:34;0.70;;;0.65;;
23280;SDS011;11809;56.390;-3.266;2023-07-31T00:45:01;1.30;;;0.80;;
23280;SDS011;11809;56.390;-3.266;2023-07-31T00:47:29;1.77;;;0.68;;
23280;SDS011;11809;56.390;-3.266;2023-07-31T00:49:56;1.20;;;0.80;;
23280;SDS011;11809;56.390;-3.266;2023-07-31T00:52:23;1.33;;;0.90;;
23280;SDS011;11809;56.390;-3.266;2023-07-31T00:54:50;1.25;;;0.80;;
23280;SDS011;11809;56.390;-3.266;2023-07-31T00:57:17;1.08;;;0.85;;
23280;SDS011;11809;56.390;-3.266;2023-07-31T00:59:45;1.00;;;0.80;;
23280;SDS011;11809;56.390;-3.266;2023-07-31T01:02:13;1.48;;;0.98;;
23280;SDS011;11809;56.390;-3.266;2023-07-31T01:04:41;0.80;;;0.80;;
23280;SDS011;11809;56.390;-3.266;2023-07-31T01:12:34;0.90;;;0.70;;
23280;SDS011;11809;56.390;-3.266;2023-07-31T01:15:08;0.80;;;0.60;;
23280;SDS011;11809;56.390;-3.266;2023-07-31T01:17:39;0.70;;;0.60;;
23280;SDS011;11809;56.390;-3.266;2023-07-31T01:28:13;0.70;;;0.70;;
23280;SDS011;11809;56.390;-3.266;2023-07-31T01:30:44;0.60;;;0.60;;
23280;SDS011;11809;56.390;-3.266;2023-07-31T01:33:17;1.38;;;0.80;;
23280;SDS011;11809;56.390;-3.266;2023-07-31T01:35:45;1.10;;;0.98;;
23280;SDS011;11809;56.390;-3.266;2023-07-31T01:38:15;1.17;;;0.65;;
23280;SDS011;11809;56.390;-3.266;2023-07-31T01:40:49;1.10;;;0.90;;
23280;SDS011;11809;56.390;-3.266;2023-07-31T01:43:18;1.98;;;0.90;;
23280;SDS011;11809;56.390;-3.266;2023-07-31T01:45:45;2.42;;;0.88;;
23280;SDS011;11809;56.390;-3.266;2023-07-31T01:48:12;0.88;;;0.70;;
23280;SDS011;11809;56.390;-3.266;2023-07-31T01:50:39;1.73;;;0.70;;
23280;SDS011;11809;56.390;-3.266;2023-07-31T01:53:06;1.38;;;0.70;;
23280;SDS011;11809;56.390;-3.266;2023-07-31T01:55:33;2.15;;;0.80;;
23280;SDS011;11809;56.390;-3.266;2023-07-31T01:58:00;1.08;;;0.88;;
23280;SDS011;11809;56.390;-3.266;2023-07-31T02:00:27;2.97;;;0.80;;
23280;SDS011;11809;56.390;-3.266;2023-07-31T02:02:54;2.03;;;0.70;;
23280;SDS011;11809;56.390;-3.266;2023-07-31T02:05:22;0.80;;;0.80;;
23280;SDS011;11809;56.390;-3.266;2023-07-31T02:07:49;1.00;;;0.95;;
23280;SDS011;11809;56.390;-3.266;2023-07-31T02:10:16;1.00;;;0.90;;
23280;SDS011;11809;56.390;-3.266;2023-07-31T02:12:43;1.10;;;0.82;;
23280;SDS011;11809;56.390;-3.266;2023-07-31T02:15:10;1.33;;;0.90;;
23280;SDS011;11809;56.390;-3.266;2023-07-31T02:17:37;1.30;;;0.80;;
23280;SDS011;11809;56.390;-3.266;2023-07-31T02:20:05;0.82;;;0.80;;
23280;SDS011;11809;56.390;-3.266;2023-07-31T02:22:32;1.05;;;0.80;;
23280;SDS011;11809;56.390;-3.266;2023-07-31T02:24:59;1.00;;;0.90;;
23280;SDS011;11809;56.390;-3.266;2023-07-31T02:27:26;1.88;;;0.80;;
23280;SDS011;11809;56.390;-3.266;2023-07-31T02:29:54;2.00;;;0.88;;
23280;SDS011;11809;56.390;-3.266;2023-07-31T02:32:21;1.85;;;0.80;;
23280;SDS011;11809;56.390;-3.266;2023-07-31T02:34:48;1.85;;;0.73;;
23280;SDS011;11809;56.390;-3.266;2023-07-31T02:37:15;1.00;;;0.85;;
23280;SDS011;11809;56.390;-3.266;2023-07-31T02:39:42;1.42;;;1.00;;
23280;SDS011;11809;56.390;-3.266;2023-07-31T02:42:09;1.40;;;1.08;;
23280;SDS011;11809;56.390;-3.266;2023-07-31T02:44:36;0.77;;;0.77;;
23280;SDS011;11809;56.390;-3.266;2023-07-31T02:47:04;0.80;;;0.77;;
23280;SDS011;11809;56.390;-3.266;2023-07-31T02:49:31;0.80;;;0.80;;
23280;SDS011;11809;56.390;-3.266;2023-07-31T02:51:58;0.80;;;0.80;;
23280;SDS011;11809;56.390;-3.266;2023-07-31T02:54:25;0.80;;;0.80;;
23280;SDS011;11809;56.390;-3.266;2023-07-31T02:56:52;0.80;;;0.80;;
23280;SDS011;11809;56.390;-3.266;2023-07-31T02:59:19;1.23;;;0.80;;
23280;SDS011;11809;56.390;-3.266;2023-07-31T03:01:47;0.70;;;0.70;;
23280;SDS011;11809;56.390;-3.266;2023-07-31T03:04:14;0.82;;;0.80;;
23280;SDS011;11809;56.390;-3.266;2023-07-31T03:06:44;2.22;;;0.85;;
23280;SDS011;11809;56.390;-3.266;2023-07-31T03:09:11;0.90;;;0.70;;
23280;SDS011;11809;56.390;-3.266;2023-07-31T03:11:38;0.82;;;0.80;;
23280;SDS011;11809;56.390;-3.266;2023-07-31T03:14:05;0.75;;;0.75;;
23280;SDS011;11809;56.390;-3.266;2023-07-31T03:16:32;0.80;;;0.80;;
23280;SDS011;11809;56.390;-3.266;2023-07-31T03:18:59;0.75;;;0.75;;
23280;SDS011;11809;56.390;-3.266;2023-07-31T03:21:26;1.33;;;1.05;;
23280;SDS011;11809;56.390;-3.266;2023-07-31T03:23:53;0.88;;;0.85;;
23280;SDS011;11809;56.390;-3.266;2023-07-31T03:26:20;1.02;;;0.93;;
23280;SDS011;11809;56.390;-3.266;2023-07-31T03:28:47;0.90;;;0.80;;
23280;SDS011;11809;56.390;-3.266;2023-07-31T03:31:16;1.52;;;0.80;;
23280;SDS011;11809;56.390;-3.266;2023-07-31T03:33:43;1.00;;;0.80;;
23280;SDS011;11809;56.390;-3.266;2023-07-31T03:36:10;2.50;;;1.08;;
23280;SDS011;11809;56.390;-3.266;2023-07-31T03:38:37;2.25;;;0.70;;
23280;SDS011;11809;56.390;-3.266;2023-07-31T03:41:04;0.80;;;0.70;;
23280;SDS011;11809;56.390;-3.266;2023-07-31T03:43:32;1.65;;;0.80;;
23280;SDS011;11809;56.390;-3.266;2023-07-31T03:46:02;1.00;;;0.77;;
23280;SDS011;11809;56.390;-3.266;2023-07-31T03:48:29;2.58;;;0.90;;
23280;SDS011;11809;56.390;-3.266;2023-07-31T03:50:56;2.97;;;1.00;;
23280;SDS011;11809;56.390;-3.266;2023-07-31T03:53:23;1.40;;;1.00;;
23280;SDS011;11809;56.390;-3.266;2023-07-31T03:55:50;1.58;;;1.08;;
23280;SDS011;11809;56.390;-3.266;2023-07-31T03:58:17;1.92;;;0.90;;
23280;SDS011;11809;56.390;-3.266;2023-07-31T04:00:45;2.47;;;0.90;;
23280;SDS011;11809;56.390;-3.266;2023-07-31T04:03:12;1.13;;;0.80;;
23280;SDS011;11809;56.390;-3.266;2023-07-31T04:05:39;0.98;;;0.77;;
23280;SDS011;11809;56.390;-3.266;2023-07-31T04:08:06;0.90;;;0.82;;
23280;SDS011;11809;56.390;-3.266;2023-07-31T04:10:33;1.20;;;0.85;;
23280;SDS011;11809;56.390;-3.266;2023-07-31T04:13:00;2.28;;;0.88;;
23280;SDS011;11809;56.390;-3.266;2023-07-31T04:15:27;2.90;;;0.90;;
23280;SDS011;11809;56.390;-3.266;2023-07-31T04:17:54;1.15;;;0.82;;
23280;SDS011;11809;56.390;-3.266;2023-07-31T04:20:21;1.00;;;0.90;;
23280;SDS011;11809;56.390;-3.266;2023-07-31T04:22:49;1.10;;;1.00;;
23280;SDS011;11809;56.390;-3.266;2023-07-31T04:25:16;3.50;;;0.90;;
23280;SDS011;11809;56.390;-3.266;2023-07-31T04:27:43;7.85;;;1.38;;
23280;SDS011;11809;56.390;-3.266;2023-07-31T04:30:10;12.85;;;1.88;;
23280;SDS011;11809;56.390;-3.266;2023-07-31T04:32:37;11.43;;;1.42;;
23280;SDS011;11809;56.390;-3.266;2023-07-31T04:35:04;4.78;;;1.25;;
23280;SDS011;11809;56.390;-3.266;2023-07-31T04:37:32;4.72;;;1.08;;
23280;SDS011;11809;56.390;-3.266;2023-07-31T04:39:59;3.85;;;1.02;;
23280;SDS011;11809;56.390;-3.266;2023-07-31T04:42:26;5.80;;;1.00;;
23280;SDS011;11809;56.390;-3.266;2023-07-31T04:44:53;4.93;;;1.30;;
23280;SDS011;11809;56.390;-3.266;2023-07-31T04:47:20;6.28;;;1.08;;
23280;SDS011;11809;56.390;-3.266;2023-07-31T04:49:47;4.20;;;1.08;;
23280;SDS011;11809;56.390;-3.266;2023-07-31T04:52:14;6.40;;;1.38;;
23280;SDS011;11809;56.390;-3.266;2023-07-31T04:54:41;4.75;;;1.85;;
23280;SDS011;11809;56.390;-3.266;2023-07-31T04:57:08;2.65;;;2.35;;
23280;SDS011;11809;56.390;-3.266;2023-07-31T04:59:35;4.15;;;2.75;;
23280;SDS011;11809;56.390;-3.266;2023-07-31T05:02:02;5.05;;;2.83;;
23280;SDS011;11809;56.390;-3.266;2023-07-31T05:04:29;7.88;;;4.07;;
23280;SDS011;11809;56.390;-3.266;2023-07-31T05:06:56;8.80;;;4.68;;
23280;SDS011;11809;56.390;-3.266;2023-07-31T05:09:23;12.32;;;6.38;;
23280;SDS011;11809;56.390;-3.266;2023-07-31T05:11:50;12.65;;;5.40;;
23280;SDS011;11809;56.390;-3.266;2023-07-31T05:14:17;12.10;;;6.97;;
23280;SDS011;11809;56.390;-3.266;2023-07-31T05:16:44;17.25;;;8.40;;
23280;SDS011;11809;56.390;-3.266;2023-07-31T05:19:11;15.18;;;8.00;;
23280;SDS011;11809;56.390;-3.266;2023-07-31T05:21:38;12.25;;;6.78;;
23280;SDS011;11809;56.390;-3.266;2023-07-31T05:24:05;12.02;;;6.97;;
23280;SDS011;11809;56.390;-3.266;2023-07-31T05:26:33;8.25;;;5.80;;
23280;SDS011;11809;56.390;-3.266;2023-07-31T05:29:00;11.57;;;7.03;;
23280;SDS011;11809;56.390;-3.266;2023-07-31T05:31:27;15.98;;;6.15;;
23280;SDS011;11809;56.390;-3.266;2023-07-31T05:33:54;18.38;;;6.65;;
23280;SDS011;11809;56.390;-3.266;2023-07-31T05:36:22;12.57;;;6.57;;
23280;SDS011;11809;56.390;-3.266;2023-07-31T05:38:49;9.40;;;5.13;;
23280;SDS011;11809;56.390;-3.266;2023-07-31T05:41:16;10.80;;;4.30;;
23280;SDS011;11809;56.390;-3.266;2023-07-31T05:43:43;10.63;;;4.30;;
23280;SDS011;11809;56.390;-3.266;2023-07-31T05:46:10;9.43;;;4.43;;
23280;SDS011;11809;56.390;-3.266;2023-07-31T05:48:38;6.18;;;3.90;;
23280;SDS011;11809;56.390;-3.266;2023-07-31T05:51:05;8.85;;;3.95;;
23280;SDS011;11809;56.390;-3.266;2023-07-31T05:53:33;9.45;;;4.47;;
23280;SDS011;11809;56.390;-3.266;2023-07-31T05:56:01;12.98;;;4.25;;
23280;SDS011;11809;56.390;-3.266;2023-07-31T05:58:28;7.85;;;3.42;;
23280;SDS011;11809;56.390;-3.266;2023-07-31T06:00:55;5.93;;;3.50;;
23280;SDS011;11809;56.390;-3.266;2023-07-31T06:03:22;8.25;;;3.00;;
23280;SDS011;11809;56.390;-3.266;2023-07-31T06:05:49;5.28;;;3.05;;
23280;SDS011;11809;56.390;-3.266;2023-07-31T06:08:16;4.32;;;2.90;;
23280;SDS011;11809;56.390;-3.266;2023-07-31T06:10:44;6.57;;;3.53;;
23280;SDS011;11809;56.390;-3.266;2023-07-31T06:13:11;7.32;;;3.80;;
23280;SDS011;11809;56.390;-3.266;2023-07-31T06:15:38;8.43;;;3.20;;
23280;SDS011;11809;56.390;-3.266;2023-07-31T06:18:05;5.10;;;2.42;;
23280;SDS011;11809;56.390;-3.266;2023-07-31T06:20:34;5.97;;;2.83;;
23280;SDS011;11809;56.390;-3.266;2023-07-31T06:23:01;8.15;;;2.75;;
23280;SDS011;11809;56.390;-3.266;2023-07-31T06:25:29;3.92;;;2.60;;
23280;SDS011;11809;56.390;-3.266;2023-07-31T06:27:56;6.25;;;2.58;;
23280;SDS011;11809;56.390;-3.266;2023-07-31T06:30:23;5.65;;;2.40;;
23280;SDS011;11809;56.390;-3.266;2023-07-31T06:32:50;6.50;;;2.20;;
23280;SDS011;11809;56.390;-3.266;2023-07-31T06:35:17;3.25;;;1.90;;
23280;SDS011;11809;56.390;-3.266;2023-07-31T06:37:44;3.78;;;2.22;;
23280;SDS011;11809;56.390;-3.266;2023-07-31T06:40:11;2.25;;;1.88;;
23280;SDS011;11809;56.390;-3.266;2023-07-31T06:42:41;4.10;;;1.90;;
23280;SDS011;11809;56.390;-3.266;2023-07-31T06:45:09;1.88;;;1.63;;
23280;SDS011;11809;56.390;-3.266;2023-07-31T06:47:36;2.40;;;1.85;;
23280;SDS011;11809;56.390;-3.266;2023-07-31T06:50:04;4.10;;;1.70;;
23280;SDS011;11809;56.390;-3.266;2023-07-31T06:52:32;4.07;;;1.58;;
23280;SDS011;11809;56.390;-3.266;2023-07-31T06:55:02;3.08;;;1.60;;
23280;SDS011;11809;56.390;-3.266;2023-07-31T06:57:49;4.55;;;1.52;;
23280;SDS011;11809;56.390;-3.266;2023-07-31T07:00:18;2.78;;;1.60;;
23280;SDS011;11809;56.390;-3.266;2023-07-31T07:02:46;3.08;;;1.65;;
23280;SDS011;11809;56.390;-3.266;2023-07-31T07:05:17;6.30;;;1.83;;
23280;SDS011;11809;56.390;-3.266;2023-07-31T07:07:45;5.05;;;1.50;;
23280;SDS011;11809;56.390;-3.266;2023-07-31T07:10:12;5.95;;;1.75;;
23280;SDS011;11809;56.390;-3.266;2023-07-31T07:12:39;4.55;;;1.38;;
23280;SDS011;11809;56.390;-3.266;2023-07-31T07:15:08;3.85;;;1.50;;
23280;SDS011;11809;56.390;-3.266;2023-07-31T07:17:35;2.13;;;1.30;;
23280;SDS011;11809;56.390;-3.266;2023-07-31T07:20:03;3.40;;;1.45;;
23280;SDS011;11809;56.390;-3.266;2023-07-31T07:22:31;1.60;;;1.33;;
23280;SDS011;11809;56.390;-3.266;2023-07-31T07:24:58;2.13;;;1.40;;
23280;SDS011;11809;56.390;-3.266;2023-07-31T07:27:25;5.35;;;1.50;;
23280;SDS011;11809;56.390;-3.266;2023-07-31T07:29:53;2.00;;;1.65;;
23280;SDS011;11809;56.390;-3.266;2023-07-31T07:32:20;5.63;;;1.40;;
23280;SDS011;11809;56.390;-3.266;2023-07-31T07:34:49;4.70;;;1.50;;
23280;SDS011;11809;56.390;-3.266;2023-07-31T07:37:16;3.58;;;1.20;;
23280;SDS011;11809;56.390;-3.266;2023-07-31T07:39:43;2.22;;;1.40;;
23280;SDS011;11809;56.390;-3.266;2023-07-31T07:42:11;1.33;;;1.10;;
23280;SDS011;11809;56.390;-3.266;2023-07-31T07:44:38;2.80;;;1.20;;
23280;SDS011;11809;56.390;-3.266;2023-07-31T07:47:06;4.05;;;1.30;;
23280;SDS011;11809;56.390;-3.266;2023-07-31T07:49:33;6.57;;;1.27;;
23280;SDS011;11809;56.390;-3.266;2023-07-31T07:52:02;4.00;;;1.40;;
23280;SDS011;11809;56.390;-3.266;2023-07-31T07:54:30;2.28;;;1.30;;
23280;SDS011;11809;56.390;-3.266;2023-07-31T07:56:58;3.35;;;1.40;;
23280;SDS011;11809;56.390;-3.266;2023-07-31T07:59:25;1.55;;;1.10;;
23280;SDS011;11809;56.390;-3.266;2023-07-31T08:01:52;1.67;;;1.08;;
23280;SDS011;11809;56.390;-3.266;2023-07-31T08:04:20;2.00;;;1.27;;
23280;SDS011;11809;56.390;-3.266;2023-07-31T08:06:47;4.50;;;1.30;;
23280;SDS011;11809;56.390;-3.266;2023-07-31T08:09:15;1.55;;;1.10;;
23280;SDS011;11809;56.390;-3.266;2023-07-31T08:11:44;2.25;;;1.08;;
23280;SDS011;11809;56.390;-3.266;2023-07-31T08:14:13;2.55;;;1.10;;
23280;SDS011;11809;56.390;-3.266;2023-07-31T08:16:41;5.80;;;1.40;;
23280;SDS011;11809;56.390;-3.266;2023-07-31T08:19:08;6.35;;;1.23;;
23280;SDS011;11809;56.390;-3.266;2023-07-31T08:21:36;3.28;;;1.10;;
23280;SDS011;11809;56.390;-3.266;2023-07-31T08:24:04;1.77;;;1.00;;
23280;SDS011;11809;56.390;-3.266;2023-07-31T08:26:31;32.75;;;2.28;;
23280;SDS011;11809;56.390;-3.266;2023-07-31T08:28:59;7.55;;;1.50;;
23280;SDS011;11809;56.390;-3.266;2023-07-31T08:31:27;4.43;;;1.20;;
23280;SDS011;11809;56.390;-3.266;2023-07-31T08:33:56;6.05;;;1.40;;
23280;SDS011;11809;56.390;-3.266;2023-07-31T08:36:23;4.93;;;1.17;;
23280;SDS011;11809;56.390;-3.266;2023-07-31T08:38:55;3.08;;;1.20;;
23280;SDS011;11809;56.390;-3.266;2023-07-31T08:41:24;5.25;;;0.82;;
23280;SDS011;11809;56.390;-3.266;2023-07-31T08:43:53;7.47;;;1.10;;
23280;SDS011;11809;56.390;-3.266;2023-07-31T08:46:22;8.75;;;1.60;;
23280;SDS011;11809;56.390;-3.266;2023-07-31T08:48:50;5.75;;;1.45;;
23280;SDS011;11809;56.390;-3.266;2023-07-31T08:51:19;2.58;;;1.08;;
23280;SDS011;11809;56.390;-3.266;2023-07-31T08:53:47;5.60;;;1.10;;
23280;SDS011;11809;56.390;-3.266;2023-07-31T08:56:15;8.55;;;1.25;;
23280;SDS011;11809;56.390;-3.266;2023-07-31T08:58:44;10.90;;;1.52;;
23280;SDS011;11809;56.390;-3.266;2023-07-31T09:01:13;5.40;;;1.45;;
23280;SDS011;11809;56.390;-3.266;2023-07-31T09:03:43;8.07;;;1.20;;
23280;SDS011;11809;56.390;-3.266;2023-07-31T09:06:12;6.25;;;1.00;;
23280;SDS011;11809;56.390;-3.266;2023-07-31T09:08:42;9.85;;;1.35;;
23280;SDS011;11809;56.390;-3.266;2023-07-31T09:11:10;24.25;;;2.08;;
23280;SDS011;11809;56.390;-3.266;2023-07-31T09:13:40;11.63;;;1.25;;
23280;SDS011;11809;56.390;-3.266;2023-07-31T09:16:08;4.07;;;1.02;;
23280;SDS011;11809;56.390;-3.266;2023-07-31T09:18:52;4.07;;;1.00;;
23280;SDS011;11809;56.390;-3.266;2023-07-31T09:21:22;4.35;;;1.10;;
23280;SDS011;11809;56.390;-3.266;2023-07-31T09:23:50;8.77;;;1.08;;
23280;SDS011;11809;56.390;-3.266;2023-07-31T09:26:30;5.97;;;1.00;;
23280;SDS011;11809;56.390;-3.266;2023-07-31T09:29:07;9.73;;;1.40;;
23280;SDS011;11809;56.390;-3.266;2023-07-31T09:31:46;12.05;;;1.10;;
23280;SDS011;11809;56.390;-3.266;2023-07-31T09:34:13;7.40;;;1.08;;
23280;SDS011;11809;56.390;-3.266;2023-07-31T09:36:41;8.80;;;0.82;;
23280;SDS011;11809;56.390;-3.266;2023-07-31T09:39:17;9.43;;;1.15;;
23280;SDS011;11809;56.390;-3.266;2023-07-31T09:41:48;11.68;;;1.35;;
23280;SDS011;11809;56.390;-3.266;2023-07-31T09:44:21;8.07;;;1.13;;
23280;SDS011;11809;56.390;-3.266;2023-07-31T09:46:55;15.15;;;1.20;;
23280;SDS011;11809;56.390;-3.266;2023-07-31T09:49:22;3.85;;;1.10;;
23280;SDS011;11809;56.390;-3.266;2023-07-31T09:51:52;7.03;;;1.00;;
23280;SDS011;11809;56.390;-3.266;2023-07-31T09:54:19;10.13;;;1.00;;
23280;SDS011;11809;56.390;-3.266;2023-07-31T09:56:47;15.70;;;1.33;;
23280;SDS011;11809;56.390;-3.266;2023-07-31T09:59:16;13.35;;;0.93;;
23280;SDS011;11809;56.390;-3.266;2023-07-31T10:01:49;7.05;;;1.20;;
23280;SDS011;11809;56.390;-3.266;2023-07-31T10:04:17;8.48;;;1.10;;
23280;SDS011;11809;56.390;-3.266;2023-07-31T10:06:52;10.98;;;1.23;;
23280;SDS011;11809;56.390;-3.266;2023-07-31T10:09:20;9.52;;;1.15;;
23280;SDS011;11809;56.390;-3.266;2023-07-31T10:11:55;3.35;;;0.85;;
23280;SDS011;11809;56.390;-3.266;2023-07-31T10:14:29;7.07;;;0.98;;
23280;SDS011;11809;56.390;-3.266;2023-07-31T10:16:58;4.32;;;1.00;;
23280;SDS011;11809;56.390;-3.266;2023-07-31T10:19:26;5.03;;;0.80;;
23280;SDS011;11809;56.390;-3.266;2023-07-31T10:21:54;9.02;;;1.35;;
23280;SDS011;11809;56.390;-3.266;2023-07-31T10:24:23;3.83;;;0.70;;
23280;SDS011;11809;56.390;-3.266;2023-07-31T10:26:52;6.00;;;0.90;;
23280;SDS011;11809;56.390;-3.266;2023-07-31T10:29:24;4.57;;;1.17;;
23280;SDS011;11809;56.390;-3.266;2023-07-31T10:31:53;23.38;;;2.00;;
23280;SDS011;11809;56.390;-3.266;2023-07-31T10:34:24;9.43;;;1.40;;
23280;SDS011;11809;56.390;-3.266;2023-07-31T10:40:07;18.95;;;1.40;;
23280;SDS011;11809;56.390;-3.266;2023-07-31T10:42:51;5.20;;;1.00;;
23280;SDS011;11809;56.390;-3.266;2023-07-31T10:45:33;2.58;;;0.90;;
23280;SDS011;11809;56.390;-3.266;2023-07-31T10:48:12;6.97;;;1.10;;
23280;SDS011;11809;56.390;-3.266;2023-07-31T10:50:47;14.20;;;1.30;;
23280;SDS011;11809;56.390;-3.266;2023-07-31T10:53:23;9.88;;;1.02;;
23280;SDS011;11809;56.390;-3.266;2023-07-31T10:55:52;12.88;;;1.35;;
23280;SDS011;11809;56.390;-3.266;2023-07-31T10:58:20;4.72;;;1.30;;
23280;SDS011;11809;56.390;-3.266;2023-07-31T11:00:49;3.47;;;1.00;;
23280;SDS011;11809;56.390;-3.266;2023-07-31T11:03:18;2.95;;;0.80;;
23280;SDS011;11809;56.390;-3.266;2023-07-31T11:05:53;3.05;;;0.85;;
23280;SDS011;11809;56.390;-3.266;2023-07-31T11:08:30;2.33;;;0.55;;
23280;SDS011;11809;56.390;-3.266;2023-07-31T11:13:45;2.78;;;0.65;;
23280;SDS011;11809;56.390;-3.266;2023-07-31T11:16:20;1.67;;;0.60;;
23280;SDS011;11809;56.390;-3.266;2023-07-31T11:18:49;2.80;;;0.50;;
23280;SDS011;11809;56.390;-3.266;2023-07-31T11:21:19;1.92;;;0.50;;
23280;SDS011;11809;56.390;-3.266;2023-07-31T11:23:51;2.03;;;0.70;;
23280;SDS011;11809;56.390;-3.266;2023-07-31T11:26:20;2.20;;;0.75;;
23280;SDS011;11809;56.390;-3.266;2023-07-31T11:28:48;2.53;;;0.43;;
23280;SDS011;11809;56.390;-3.266;2023-07-31T11:31:16;2.95;;;0.40;;
23280;SDS011;11809;56.390;-3.266;2023-07-31T11:33:45;1.92;;;0.40;;
23280;SDS011;11809;56.390;-3.266;2023-07-31T11:36:16;0.80;;;0.40;;
23280;SDS011;11809;56.390;-3.266;2023-07-31T11:38:46;1.27;;;0.47;;
23280;SDS011;11809;56.390;-3.266;2023-07-31T11:41:14;1.35;;;0.40;;
23280;SDS011;11809;56.390;-3.266;2023-07-31T11:43:44;1.67;;;0.40;;
23280;SDS011;11809;56.390;-3.266;2023-07-31T11:46:13;2.13;;;0.50;;
23280;SDS011;11809;56.390;-3.266;2023-07-31T11:48:42;0.85;;;0.35;;
23280;SDS011;11809;56.390;-3.266;2023-07-31T11:51:10;1.95;;;0.30;;
23280;SDS011;11809;56.390;-3.266;2023-07-31T11:56:20;1.70;;;0.50;;
23280;SDS011;11809;56.390;-3.266;2023-07-31T11:58:58;0.98;;;0.30;;
23280;SDS011;11809;56.390;-3.266;2023-07-31T12:01:30;0.75;;;0.30;;
23280;SDS011;11809;56.390;-3.266;2023-07-31T12:06:35;0.60;;;0.40;;
23280;SDS011;11809;56.390;-3.266;2023-07-31T12:09:06;0.40;;;0.30;;
23280;SDS011;11809;56.390;-3.266;2023-07-31T12:11:45;0.75;;;0.30;;
23280;SDS011;11809;56.390;-3.266;2023-07-31T12:14:21;0.82;;;0.30;;
23280;SDS011;11809;56.390;-3.266;2023-07-31T12:16:58;2.20;;;0.35;;
23280;SDS011;11809;56.390;-3.266;2023-07-31T12:19:30;0.50;;;0.35;;
23280;SDS011;11809;56.390;-3.266;2023-07-31T12:22:14;1.85;;;0.43;;
23280;SDS011;11809;56.390;-3.266;2023-07-31T12:24:48;1.08;;;0.40;;
23280;SDS011;11809;56.390;-3.266;2023-07-31T12:27:21;0.25;;;0.20;;
23280;SDS011;11809;56.390;-3.266;2023-07-31T12:29:53;0.98;;;0.30;;
23280;SDS011;11809;56.390;-3.266;2023-07-31T12:32:22;0.68;;;0.25;;
23280;SDS011;11809;56.390;-3.266;2023-07-31T12:35:01;5.63;;;0.90;;
23280;SDS011;11809;56.390;-3.266;2023-07-31T12:37:33;6.75;;;0.52;;
23280;SDS011;11809;56.390;-3.266;2023-07-31T12:40:02;3.63;;;0.40;;
23280;SDS011;11809;56.390;-3.266;2023-07-31T12:42:36;5.40;;;0.55;;
23280;SDS011;11809;56.390;-3.266;2023-07-31T12:45:11;1.48;;;0.40;;
23280;SDS011;11809;56.390;-3.266;2023-07-31T12:47:45;2.58;;;0.30;;
23280;SDS011;11809;56.390;-3.266;2023-07-31T12:50:19;3.10;;;0.40;;
23280;SDS011;11809;56.390;-3.266;2023-07-31T12:52:56;2.95;;;0.40;;
23280;SDS011;11809;56.390;-3.266;2023-07-31T12:55:29;4.35;;;0.50;;
23280;SDS011;11809;56.390;-3.266;2023-07-31T12:58:04;9.18;;;0.50;;
23280;SDS011;11809;56.390;-3.266;2023-07-31T13:00:36;4.35;;;0.40;;
23280;SDS011;11809;56.390;-3.266;2023-07-31T13:03:12;2.60;;;0.60;;
23280;SDS011;11809;56.390;-3.266;2023-07-31T13:05:54;2.65;;;0.40;;
23280;SDS011;11809;56.390;-3.266;2023-07-31T13:08:32;2.55;;;0.30;;
23280;SDS011;11809;56.390;-3.266;2023-07-31T13:11:05;3.15;;;0.35;;
23280;SDS011;11809;56.390;-3.266;2023-07-31T13:13:42;1.10;;;0.57;;
23280;SDS011;11809;56.390;-3.266;2023-07-31T13:16:15;3.70;;;0.57;;
23280;SDS011;11809;56.390;-3.266;2023-07-31T13:18:47;5.57;;;0.93;;
23280;SDS011;11809;56.390;-3.266;2023-07-31T13:21:21;1.88;;;0.35;;
23280;SDS011;11809;56.390;-3.266;2023-07-31T13:23:54;3.70;;;0.40;;
23280;SDS011;11809;56.390;-3.266;2023-07-31T13:26:29;2.05;;;0.30;;
23280;SDS011;11809;56.390;-3.266;2023-07-31T13:29:02;5.07;;;0.50;;
23280;SDS011;11809;56.390;-3.266;2023-07-31T13:31:36;0.68;;;0.20;;
23280;SDS011;11809;56.390;-3.266;2023-07-31T13:34:11;1.73;;;0.57;;
23280;SDS011;11809;56.390;-3.266;2023-07-31T13:36:44;2.40;;;0.40;;
23280;SDS011;11809;56.390;-3.266;2023-07-31T13:39:16;3.50;;;0.40;;
23280;SDS011;11809;56.390;-3.266;2023-07-31T13:41:50;2.38;;;0.57;;
23280;SDS011;11809;56.390;-3.266;2023-07-31T13:44:21;4.65;;;0.52;;
23280;SDS011;11809;56.390;-3.266;2023-07-31T13:46:54;4.88;;;0.50;;
23280;SDS011;11809;56.390;-3.266;2023-07-31T13:52:05;2.28;;;0.40;;
23280;SDS011;11809;56.390;-3.266;2023-07-31T13:54:37;4.00;;;0.47;;
23280;SDS011;11809;56.390;-3.266;2023-07-31T13:57:11;4.07;;;0.40;;
23280;SDS011;11809;56.390;-3.266;2023-07-31T13:59:48;5.50;;;0.50;;
23280;SDS011;11809;56.390;-3.266;2023-07-31T14:02:26;4.10;;;0.40;;
23280;SDS011;11809;56.390;-3.266;2023-07-31T14:07:36;3.00;;;0.43;;
23280;SDS011;11809;56.390;-3.266;2023-07-31T14:10:09;7.57;;;1.00;;
23280;SDS011;11809;56.390;-3.266;2023-07-31T14:12:43;9.27;;;0.70;;
23280;SDS011;11809;56.390;-3.266;2023-07-31T14:15:18;7.95;;;0.50;;
23280;SDS011;11809;56.390;-3.266;2023-07-31T14:17:50;5.10;;;0.60;;
23280;SDS011;11809;56.390;-3.266;2023-07-31T14:20:23;2.45;;;0.40;;
23280;SDS011;11809;56.390;-3.266;2023-07-31T14:22:58;23.95;;;1.23;;
23280;SDS011;11809;56.390;-3.266;2023-07-31T14:25:35;6.78;;;0.47;;
23280;SDS011;11809;56.390;-3.266;2023-07-31T14:28:06;1.08;;;0.40;;
23280;SDS011;11809;56.390;-3.266;2023-07-31T14:30:40;2.70;;;0.43;;
23280;SDS011;11809;56.390;-3.266;2023-07-31T14:33:12;9.55;;;0.50;;
23280;SDS011;11809;56.390;-3.266;2023-07-31T14:35:43;9.05;;;0.52;;
23280;SDS011;11809;56.390;-3.266;2023-07-31T14:38:13;10.07;;;0.80;;
23280;SDS011;11809;56.390;-3.266;2023-07-31T14:45:44;6.55;;;0.90;;
23280;SDS011;11809;56.390;-3.266;2023-07-31T14:48:13;5.00;;;0.75;;
23280;SDS011;11809;56.390;-3.266;2023-07-31T14:50:43;1.33;;;0.40;;
23280;SDS011;11809;56.390;-3.266;2023-07-31T14:53:10;15.20;;;1.65;;
23280;SDS011;11809;56.390;-3.266;2023-07-31T14:55:38;3.60;;;0.60;;
23280;SDS011;11809;56.390;-3.266;2023-07-31T14:58:07;7.55;;;0.68;;
23280;SDS011;11809;56.390;-3.266;2023-07-31T15:00:37;6.60;;;0.40;;
23280;SDS011;11809;56.390;-3.266;2023-07-31T15:03:06;6.32;;;0.60;;
23280;SDS011;11809;56.390;-3.266;2023-07-31T15:05:36;2.58;;;0.47;;
23280;SDS011;11809;56.390;-3.266;2023-07-31T15:08:04;10.23;;;0.70;;
23280;SDS011;11809;56.390;-3.266;2023-07-31T15:10:33;13.52;;;0.82;;
23280;SDS011;11809;56.390;-3.266;2023-07-31T15:13:00;8.93;;;0.70;;
23280;SDS011;11809;56.390;-3.266;2023-07-31T15:15:28;11.32;;;0.77;;
23280;SDS011;11809;56.390;-3.266;2023-07-31T15:17:55;9.77;;;0.60;;
23280;SDS011;11809;56.390;-3.266;2023-07-31T15:20:23;5.97;;;0.60;;